sensor_id;sensor_type;location;lat;lon;timestamp;P1;durP1;ratioP1;P2;durP2;ratioP2
67930;SDS011;54726;52.000;5.954;2022-07-24T00:00:28;6.45;;;3.80;;
67930;SDS011;54726;52.000;5.954;2022-07-24T00:01:30;5.78;;;3.47;;
67930;SDS011;54726;52.000;5.954;2022-07-24T00:02:30;10.15;;;4.18;;
67930;SDS011;54726;52.000;5.954;2022-07-24T00:03:31;6.63;;;4.35;;
67930;SDS011;54726;52.000;5.954;2022-07-24T00:04:31;7.22;;;3.67;;
67930;SDS011;54726;52.000;5.954;2022-07-24T00:05:32;5.20;;;3.70;;
67930;SDS011;54726;52.000;5.954;2022-07-24T00:06:32;5.53;;;3.53;;
67930;SDS011;54726;52.000;5.954;2022-07-24T00:07:33;10.05;;;3.92;;
67930;SDS011;54726;52.000;5.954;2022-07-24T00:08:33;5.95;;;3.92;;
67930;SDS011;54726;52.000;5.954;2022-07-24T00:09:34;5.88;;;3.95;;
67930;SDS011;54726;52.000;5.954;2022-07-24T00:10:34;6.43;;;3.47;;
67930;SDS011;54726;52.000;5.954;2022-07-24T00:11:35;7.68;;;3.55;;
67930;SDS011;54726;52.000;5.954;2022-07-24T00:12:35;10.00;;;4.05;;
67930;SDS011;54726;52.000;5.954;2022-07-24T00:13:36;6.03;;;4.07;;
67930;SDS011;54726;52.000;5.954;2022-07-24T00:14:37;6.72;;;3.90;;
67930;SDS011;54726;52.000;5.954;2022-07-24T00:15:37;11.38;;;4.15;;
67930;SDS011;54726;52.000;5.954;2022-07-24T00:16:39;9.20;;;4.22;;
67930;SDS011;54726;52.000;5.954;2022-07-24T00:17:39;5.32;;;4.00;;
67930;SDS011;54726;52.000;5.954;2022-07-24T00:18:40;7.93;;;4.47;;
67930;SDS011;54726;52.000;5.954;2022-07-24T00:19:40;5.18;;;3.95;;
67930;SDS011;54726;52.000;5.954;2022-07-24T00:20:41;6.90;;;4.05;;
67930;SDS011;54726;52.000;5.954;2022-07-24T00:21:41;7.55;;;3.72;;
67930;SDS011;54726;52.000;5.954;2022-07-24T00:22:41;8.73;;;4.38;;
67930;SDS011;54726;52.000;5.954;2022-07-24T00:23:42;5.70;;;4.25;;
67930;SDS011;54726;52.000;5.954;2022-07-24T00:24:43;6.38;;;4.10;;
67930;SDS011;54726;52.000;5.954;2022-07-24T00:25:43;7.70;;;3.80;;
67930;SDS011;54726;52.000;5.954;2022-07-24T00:26:43;5.13;;;3.95;;
67930;SDS011;54726;52.000;5.954;2022-07-24T00:27:44;8.82;;;4.20;;
67930;SDS011;54726;52.000;5.954;2022-07-24T00:28:44;8.90;;;4.43;;
67930;SDS011;54726;52.000;5.954;2022-07-24T00:29:45;6.50;;;4.03;;
67930;SDS011;54726;52.000;5.954;2022-07-24T00:30:45;9.07;;;3.85;;
67930;SDS011;54726;52.000;5.954;2022-07-24T00:31:47;5.78;;;4.07;;
67930;SDS011;54726;52.000;5.954;2022-07-24T00:32:47;10.68;;;3.80;;
67930;SDS011;54726;52.000;5.954;2022-07-24T00:33:48;7.55;;;4.43;;
67930;SDS011;54726;52.000;5.954;2022-07-24T00:34:49;9.18;;;4.88;;
67930;SDS011;54726;52.000;5.954;2022-07-24T00:35:49;6.47;;;3.97;;
67930;SDS011;54726;52.000;5.954;2022-07-24T00:36:49;5.13;;;3.70;;
67930;SDS011;54726;52.000;5.954;2022-07-24T00:37:50;8.35;;;4.28;;
67930;SDS011;54726;52.000;5.954;2022-07-24T00:38:50;11.13;;;4.03;;
67930;SDS011;54726;52.000;5.954;2022-07-24T00:39:51;9.55;;;4.13;;
67930;SDS011;54726;52.000;5.954;2022-07-24T00:40:51;7.15;;;4.18;;
67930;SDS011;54726;52.000;5.954;2022-07-24T00:41:52;6.43;;;4.20;;
67930;SDS011;54726;52.000;5.954;2022-07-24T00:42:52;5.50;;;3.80;;
67930;SDS011;54726;52.000;5.954;2022-07-24T00:43:59;7.63;;;4.45;;
67930;SDS011;54726;52.000;5.954;2022-07-24T00:45:01;7.47;;;4.57;;
67930;SDS011;54726;52.000;5.954;2022-07-24T00:46:02;7.20;;;4.53;;
67930;SDS011;54726;52.000;5.954;2022-07-24T00:47:04;6.47;;;3.78;;
67930;SDS011;54726;52.000;5.954;2022-07-24T00:48:05;9.32;;;4.43;;
67930;SDS011;54726;52.000;5.954;2022-07-24T00:49:06;8.73;;;4.68;;
67930;SDS011;54726;52.000;5.954;2022-07-24T00:50:08;7.38;;;4.20;;
67930;SDS011;54726;52.000;5.954;2022-07-24T00:51:09;10.02;;;4.18;;
67930;SDS011;54726;52.000;5.954;2022-07-24T00:52:10;12.68;;;4.63;;
67930;SDS011;54726;52.000;5.954;2022-07-24T00:53:10;7.10;;;4.22;;
67930;SDS011;54726;52.000;5.954;2022-07-24T00:54:11;10.40;;;4.32;;
67930;SDS011;54726;52.000;5.954;2022-07-24T00:55:12;7.50;;;4.50;;
67930;SDS011;54726;52.000;5.954;2022-07-24T00:56:13;6.18;;;4.30;;
67930;SDS011;54726;52.000;5.954;2022-07-24T00:57:14;9.32;;;4.30;;
67930;SDS011;54726;52.000;5.954;2022-07-24T00:58:14;5.90;;;4.50;;
67930;SDS011;54726;52.000;5.954;2022-07-24T00:59:15;11.50;;;4.88;;
67930;SDS011;54726;52.000;5.954;2022-07-24T01:00:16;13.68;;;4.60;;
67930;SDS011;54726;52.000;5.954;2022-07-24T01:01:18;9.23;;;5.38;;
67930;SDS011;54726;52.000;5.954;2022-07-24T01:02:19;7.22;;;5.20;;
67930;SDS011;54726;52.000;5.954;2022-07-24T01:03:20;8.38;;;4.85;;
67930;SDS011;54726;52.000;5.954;2022-07-24T01:04:21;9.45;;;4.65;;
67930;SDS011;54726;52.000;5.954;2022-07-24T01:05:22;8.32;;;4.78;;
67930;SDS011;54726;52.000;5.954;2022-07-24T01:06:23;7.88;;;4.78;;
67930;SDS011;54726;52.000;5.954;2022-07-24T01:07:24;9.85;;;4.65;;
67930;SDS011;54726;52.000;5.954;2022-07-24T01:08:24;7.43;;;4.47;;
67930;SDS011;54726;52.000;5.954;2022-07-24T01:09:25;9.23;;;4.75;;
67930;SDS011;54726;52.000;5.954;2022-07-24T01:10:25;6.15;;;4.38;;
67930;SDS011;54726;52.000;5.954;2022-07-24T01:11:26;6.90;;;4.65;;
67930;SDS011;54726;52.000;5.954;2022-07-24T01:12:29;9.10;;;5.20;;
67930;SDS011;54726;52.000;5.954;2022-07-24T01:13:30;8.48;;;5.03;;
67930;SDS011;54726;52.000;5.954;2022-07-24T01:14:31;10.30;;;4.50;;
67930;SDS011;54726;52.000;5.954;2022-07-24T01:15:32;7.68;;;4.97;;
67930;SDS011;54726;52.000;5.954;2022-07-24T01:16:33;7.20;;;4.75;;
67930;SDS011;54726;52.000;5.954;2022-07-24T01:17:35;12.18;;;5.50;;
67930;SDS011;54726;52.000;5.954;2022-07-24T01:18:38;11.85;;;5.00;;
67930;SDS011;54726;52.000;5.954;2022-07-24T01:19:39;6.82;;;4.43;;
67930;SDS011;54726;52.000;5.954;2022-07-24T01:20:41;9.35;;;4.97;;
67930;SDS011;54726;52.000;5.954;2022-07-24T01:21:46;7.22;;;5.22;;
67930;SDS011;54726;52.000;5.954;2022-07-24T01:22:47;9.27;;;5.50;;
67930;SDS011;54726;52.000;5.954;2022-07-24T01:23:47;9.23;;;5.20;;
67930;SDS011;54726;52.000;5.954;2022-07-24T01:24:48;10.80;;;5.03;;
67930;SDS011;54726;52.000;5.954;2022-07-24T01:25:48;6.40;;;5.03;;
67930;SDS011;54726;52.000;5.954;2022-07-24T01:26:49;8.07;;;5.05;;
67930;SDS011;54726;52.000;5.954;2022-07-24T01:27:50;7.97;;;5.07;;
67930;SDS011;54726;52.000;5.954;2022-07-24T01:28:50;13.38;;;6.05;;
67930;SDS011;54726;52.000;5.954;2022-07-24T01:29:51;10.30;;;5.75;;
67930;SDS011;54726;52.000;5.954;2022-07-24T01:30:52;12.15;;;5.55;;
67930;SDS011;54726;52.000;5.954;2022-07-24T01:31:52;12.15;;;5.65;;
67930;SDS011;54726;52.000;5.954;2022-07-24T01:32:53;10.25;;;6.05;;
67930;SDS011;54726;52.000;5.954;2022-07-24T01:33:53;9.40;;;6.20;;
67930;SDS011;54726;52.000;5.954;2022-07-24T01:34:53;9.85;;;6.05;;
67930;SDS011;54726;52.000;5.954;2022-07-24T01:35:55;9.75;;;5.82;;
67930;SDS011;54726;52.000;5.954;2022-07-24T01:36:56;12.35;;;6.18;;
67930;SDS011;54726;52.000;5.954;2022-07-24T01:37:56;10.43;;;5.80;;
67930;SDS011;54726;52.000;5.954;2022-07-24T01:38:57;11.95;;;5.80;;
67930;SDS011;54726;52.000;5.954;2022-07-24T01:39:58;11.30;;;5.35;;
67930;SDS011;54726;52.000;5.954;2022-07-24T01:40:58;9.43;;;5.93;;
67930;SDS011;54726;52.000;5.954;2022-07-24T01:41:59;8.20;;;5.55;;
67930;SDS011;54726;52.000;5.954;2022-07-24T01:42:59;9.05;;;5.60;;
67930;SDS011;54726;52.000;5.954;2022-07-24T01:44:00;10.95;;;5.85;;
67930;SDS011;54726;52.000;5.954;2022-07-24T01:45:00;10.88;;;6.10;;
67930;SDS011;54726;52.000;5.954;2022-07-24T01:46:01;11.45;;;5.70;;
67930;SDS011;54726;52.000;5.954;2022-07-24T01:47:02;10.75;;;6.40;;
67930;SDS011;54726;52.000;5.954;2022-07-24T01:48:03;12.05;;;5.53;;
67930;SDS011;54726;52.000;5.954;2022-07-24T01:49:04;10.48;;;5.90;;
67930;SDS011;54726;52.000;5.954;2022-07-24T01:50:05;18.20;;;6.75;;
67930;SDS011;54726;52.000;5.954;2022-07-24T01:51:07;10.80;;;6.22;;
67930;SDS011;54726;52.000;5.954;2022-07-24T01:52:08;11.63;;;6.32;;
67930;SDS011;54726;52.000;5.954;2022-07-24T01:53:09;10.55;;;6.43;;
67930;SDS011;54726;52.000;5.954;2022-07-24T01:54:09;16.23;;;5.82;;
67930;SDS011;54726;52.000;5.954;2022-07-24T01:55:10;8.90;;;6.25;;
67930;SDS011;54726;52.000;5.954;2022-07-24T01:56:10;7.72;;;5.65;;
67930;SDS011;54726;52.000;5.954;2022-07-24T01:57:11;11.15;;;5.60;;
67930;SDS011;54726;52.000;5.954;2022-07-24T01:58:11;10.93;;;6.53;;
67930;SDS011;54726;52.000;5.954;2022-07-24T01:59:12;8.30;;;6.05;;
67930;SDS011;54726;52.000;5.954;2022-07-24T02:00:13;12.43;;;6.30;;
67930;SDS011;54726;52.000;5.954;2022-07-24T02:01:15;13.07;;;6.80;;
67930;SDS011;54726;52.000;5.954;2022-07-24T02:02:15;14.85;;;7.50;;
67930;SDS011;54726;52.000;5.954;2022-07-24T02:03:16;8.82;;;5.88;;
67930;SDS011;54726;52.000;5.954;2022-07-24T02:04:16;12.07;;;6.75;;
67930;SDS011;54726;52.000;5.954;2022-07-24T02:05:17;14.38;;;6.57;;
67930;SDS011;54726;52.000;5.954;2022-07-24T02:06:19;13.35;;;6.47;;
67930;SDS011;54726;52.000;5.954;2022-07-24T02:07:19;9.05;;;6.35;;
67930;SDS011;54726;52.000;5.954;2022-07-24T02:08:20;11.55;;;6.80;;
67930;SDS011;54726;52.000;5.954;2022-07-24T02:09:20;15.70;;;7.10;;
67930;SDS011;54726;52.000;5.954;2022-07-24T02:10:21;13.43;;;6.85;;
67930;SDS011;54726;52.000;5.954;2022-07-24T02:11:21;10.65;;;6.85;;
67930;SDS011;54726;52.000;5.954;2022-07-24T02:12:22;11.57;;;6.25;;
67930;SDS011;54726;52.000;5.954;2022-07-24T02:13:22;18.67;;;6.70;;
67930;SDS011;54726;52.000;5.954;2022-07-24T02:14:23;10.43;;;6.60;;
67930;SDS011;54726;52.000;5.954;2022-07-24T02:15:23;12.45;;;6.57;;
67930;SDS011;54726;52.000;5.954;2022-07-24T02:16:23;11.30;;;6.50;;
67930;SDS011;54726;52.000;5.954;2022-07-24T02:17:24;18.83;;;7.10;;
67930;SDS011;54726;52.000;5.954;2022-07-24T02:18:24;11.77;;;6.93;;
67930;SDS011;54726;52.000;5.954;2022-07-24T02:19:25;12.07;;;7.20;;
67930;SDS011;54726;52.000;5.954;2022-07-24T02:20:25;8.32;;;6.18;;
67930;SDS011;54726;52.000;5.954;2022-07-24T02:21:27;15.05;;;7.15;;
67930;SDS011;54726;52.000;5.954;2022-07-24T02:22:28;11.32;;;6.68;;
67930;SDS011;54726;52.000;5.954;2022-07-24T02:23:28;11.48;;;6.78;;
67930;SDS011;54726;52.000;5.954;2022-07-24T02:24:29;10.07;;;7.03;;
67930;SDS011;54726;52.000;5.954;2022-07-24T02:25:29;12.98;;;6.80;;
67930;SDS011;54726;52.000;5.954;2022-07-24T02:26:30;14.88;;;7.18;;
67930;SDS011;54726;52.000;5.954;2022-07-24T02:27:30;12.77;;;7.43;;
67930;SDS011;54726;52.000;5.954;2022-07-24T02:28:30;16.10;;;6.88;;
67930;SDS011;54726;52.000;5.954;2022-07-24T02:29:31;14.88;;;7.55;;
67930;SDS011;54726;52.000;5.954;2022-07-24T02:30:31;13.10;;;7.68;;
67930;SDS011;54726;52.000;5.954;2022-07-24T02:31:32;17.92;;;7.03;;
67930;SDS011;54726;52.000;5.954;2022-07-24T02:32:32;18.33;;;8.15;;
67930;SDS011;54726;52.000;5.954;2022-07-24T02:33:33;20.80;;;8.00;;
67930;SDS011;54726;52.000;5.954;2022-07-24T02:34:33;13.25;;;7.70;;
67930;SDS011;54726;52.000;5.954;2022-07-24T02:35:35;12.85;;;7.60;;
67930;SDS011;54726;52.000;5.954;2022-07-24T02:36:37;11.00;;;7.07;;
67930;SDS011;54726;52.000;5.954;2022-07-24T02:37:38;11.32;;;7.22;;
67930;SDS011;54726;52.000;5.954;2022-07-24T02:38:40;13.63;;;7.78;;
67930;SDS011;54726;52.000;5.954;2022-07-24T02:39:41;15.98;;;7.40;;
67930;SDS011;54726;52.000;5.954;2022-07-24T02:40:41;17.45;;;8.15;;
67930;SDS011;54726;52.000;5.954;2022-07-24T02:41:42;13.40;;;7.55;;
67930;SDS011;54726;52.000;5.954;2022-07-24T02:42:42;13.60;;;7.82;;
67930;SDS011;54726;52.000;5.954;2022-07-24T02:43:43;12.32;;;7.85;;
67930;SDS011;54726;52.000;5.954;2022-07-24T02:44:43;16.35;;;7.68;;
67930;SDS011;54726;52.000;5.954;2022-07-24T02:45:44;11.88;;;7.40;;
67930;SDS011;54726;52.000;5.954;2022-07-24T02:46:44;12.88;;;7.47;;
67930;SDS011;54726;52.000;5.954;2022-07-24T02:47:48;20.98;;;7.95;;
67930;SDS011;54726;52.000;5.954;2022-07-24T02:48:50;10.90;;;7.07;;
67930;SDS011;54726;52.000;5.954;2022-07-24T02:49:51;14.80;;;7.38;;
67930;SDS011;54726;52.000;5.954;2022-07-24T02:50:51;18.30;;;7.25;;
67930;SDS011;54726;52.000;5.954;2022-07-24T02:51:53;11.63;;;7.75;;
67930;SDS011;54726;52.000;5.954;2022-07-24T02:52:53;13.68;;;7.82;;
67930;SDS011;54726;52.000;5.954;2022-07-24T02:53:54;16.42;;;7.93;;
67930;SDS011;54726;52.000;5.954;2022-07-24T02:54:54;19.25;;;8.00;;
67930;SDS011;54726;52.000;5.954;2022-07-24T02:55:55;13.23;;;7.30;;
67930;SDS011;54726;52.000;5.954;2022-07-24T02:56:55;16.13;;;8.30;;
67930;SDS011;54726;52.000;5.954;2022-07-24T02:57:56;13.82;;;7.80;;
67930;SDS011;54726;52.000;5.954;2022-07-24T02:58:56;12.80;;;8.07;;
67930;SDS011;54726;52.000;5.954;2022-07-24T02:59:57;15.95;;;8.27;;
67930;SDS011;54726;52.000;5.954;2022-07-24T03:00:57;13.40;;;7.72;;
67930;SDS011;54726;52.000;5.954;2022-07-24T03:01:57;13.05;;;8.68;;
67930;SDS011;54726;52.000;5.954;2022-07-24T03:02:58;16.83;;;9.10;;
67930;SDS011;54726;52.000;5.954;2022-07-24T03:03:59;16.75;;;8.45;;
67930;SDS011;54726;52.000;5.954;2022-07-24T03:04:59;12.77;;;8.23;;
67930;SDS011;54726;52.000;5.954;2022-07-24T03:06:00;14.18;;;8.18;;
67930;SDS011;54726;52.000;5.954;2022-07-24T03:07:01;12.75;;;7.60;;
67930;SDS011;54726;52.000;5.954;2022-07-24T03:08:02;20.40;;;8.18;;
67930;SDS011;54726;52.000;5.954;2022-07-24T03:09:03;13.63;;;8.63;;
67930;SDS011;54726;52.000;5.954;2022-07-24T03:10:04;15.88;;;8.88;;
67930;SDS011;54726;52.000;5.954;2022-07-24T03:11:05;19.30;;;8.32;;
67930;SDS011;54726;52.000;5.954;2022-07-24T03:12:06;15.85;;;9.07;;
67930;SDS011;54726;52.000;5.954;2022-07-24T03:13:07;13.85;;;8.43;;
67930;SDS011;54726;52.000;5.954;2022-07-24T03:14:07;16.40;;;8.52;;
67930;SDS011;54726;52.000;5.954;2022-07-24T03:15:08;17.20;;;8.65;;
67930;SDS011;54726;52.000;5.954;2022-07-24T03:16:10;21.23;;;8.02;;
67930;SDS011;54726;52.000;5.954;2022-07-24T03:17:10;17.00;;;9.15;;
67930;SDS011;54726;52.000;5.954;2022-07-24T03:18:10;16.80;;;8.70;;
67930;SDS011;54726;52.000;5.954;2022-07-24T03:19:11;15.43;;;8.80;;
67930;SDS011;54726;52.000;5.954;2022-07-24T03:20:11;17.33;;;8.70;;
67930;SDS011;54726;52.000;5.954;2022-07-24T03:21:12;11.90;;;8.23;;
67930;SDS011;54726;52.000;5.954;2022-07-24T03:22:14;18.17;;;8.80;;
67930;SDS011;54726;52.000;5.954;2022-07-24T03:23:14;17.40;;;9.15;;
67930;SDS011;54726;52.000;5.954;2022-07-24T03:24:14;11.88;;;8.30;;
67930;SDS011;54726;52.000;5.954;2022-07-24T03:25:15;17.60;;;9.48;;
67930;SDS011;54726;52.000;5.954;2022-07-24T03:26:16;18.30;;;9.50;;
67930;SDS011;54726;52.000;5.954;2022-07-24T03:27:16;14.60;;;8.90;;
67930;SDS011;54726;52.000;5.954;2022-07-24T03:28:17;17.35;;;9.27;;
67930;SDS011;54726;52.000;5.954;2022-07-24T03:29:17;15.13;;;9.48;;
67930;SDS011;54726;52.000;5.954;2022-07-24T03:30:18;18.75;;;9.35;;
67930;SDS011;54726;52.000;5.954;2022-07-24T03:31:19;19.17;;;9.20;;
67930;SDS011;54726;52.000;5.954;2022-07-24T03:32:19;18.38;;;10.30;;
67930;SDS011;54726;52.000;5.954;2022-07-24T03:33:20;14.82;;;8.68;;
67930;SDS011;54726;52.000;5.954;2022-07-24T03:34:20;19.40;;;9.80;;
67930;SDS011;54726;52.000;5.954;2022-07-24T03:35:21;17.75;;;9.45;;
67930;SDS011;54726;52.000;5.954;2022-07-24T03:36:21;17.20;;;9.35;;
67930;SDS011;54726;52.000;5.954;2022-07-24T03:37:23;20.85;;;10.18;;
67930;SDS011;54726;52.000;5.954;2022-07-24T03:38:24;17.73;;;10.10;;
67930;SDS011;54726;52.000;5.954;2022-07-24T03:39:24;19.60;;;9.75;;
67930;SDS011;54726;52.000;5.954;2022-07-24T03:40:25;18.75;;;10.57;;
67930;SDS011;54726;52.000;5.954;2022-07-24T03:41:25;19.10;;;9.68;;
67930;SDS011;54726;52.000;5.954;2022-07-24T03:42:26;19.15;;;9.68;;
67930;SDS011;54726;52.000;5.954;2022-07-24T03:43:26;21.73;;;10.48;;
67930;SDS011;54726;52.000;5.954;2022-07-24T03:44:27;18.77;;;10.80;;
67930;SDS011;54726;52.000;5.954;2022-07-24T03:45:27;20.05;;;9.90;;
67930;SDS011;54726;52.000;5.954;2022-07-24T03:46:28;18.65;;;9.65;;
67930;SDS011;54726;52.000;5.954;2022-07-24T03:47:28;18.88;;;10.20;;
67930;SDS011;54726;52.000;5.954;2022-07-24T03:48:30;21.40;;;10.05;;
67930;SDS011;54726;52.000;5.954;2022-07-24T03:49:30;20.30;;;10.52;;
67930;SDS011;54726;52.000;5.954;2022-07-24T03:50:31;16.10;;;9.75;;
67930;SDS011;54726;52.000;5.954;2022-07-24T03:51:31;17.23;;;10.45;;
67930;SDS011;54726;52.000;5.954;2022-07-24T03:52:33;21.55;;;10.98;;
67930;SDS011;54726;52.000;5.954;2022-07-24T03:53:33;17.65;;;9.32;;
67930;SDS011;54726;52.000;5.954;2022-07-24T03:54:34;20.33;;;9.90;;
67930;SDS011;54726;52.000;5.954;2022-07-24T03:55:34;21.13;;;9.70;;
67930;SDS011;54726;52.000;5.954;2022-07-24T03:56:35;18.90;;;10.30;;
67930;SDS011;54726;52.000;5.954;2022-07-24T03:57:35;20.25;;;10.52;;
67930;SDS011;54726;52.000;5.954;2022-07-24T03:58:36;17.42;;;9.93;;
67930;SDS011;54726;52.000;5.954;2022-07-24T03:59:37;18.00;;;9.93;;
67930;SDS011;54726;52.000;5.954;2022-07-24T04:00:37;20.92;;;10.32;;
67930;SDS011;54726;52.000;5.954;2022-07-24T04:01:37;25.83;;;10.32;;
67930;SDS011;54726;52.000;5.954;2022-07-24T04:02:38;19.67;;;10.80;;
67930;SDS011;54726;52.000;5.954;2022-07-24T04:03:39;21.15;;;10.77;;
67930;SDS011;54726;52.000;5.954;2022-07-24T04:04:39;23.55;;;10.32;;
67930;SDS011;54726;52.000;5.954;2022-07-24T04:05:40;17.35;;;10.00;;
67930;SDS011;54726;52.000;5.954;2022-07-24T04:06:40;31.15;;;11.00;;
67930;SDS011;54726;52.000;5.954;2022-07-24T04:07:42;17.60;;;10.02;;
67930;SDS011;54726;52.000;5.954;2022-07-24T04:08:42;19.23;;;10.77;;
67930;SDS011;54726;52.000;5.954;2022-07-24T04:09:43;21.50;;;10.77;;
67930;SDS011;54726;52.000;5.954;2022-07-24T04:10:43;18.08;;;10.55;;
67930;SDS011;54726;52.000;5.954;2022-07-24T04:11:44;23.15;;;10.57;;
67930;SDS011;54726;52.000;5.954;2022-07-24T04:12:44;26.00;;;10.45;;
67930;SDS011;54726;52.000;5.954;2022-07-24T04:13:45;16.60;;;9.07;;
67930;SDS011;54726;52.000;5.954;2022-07-24T04:14:45;21.83;;;11.27;;
67930;SDS011;54726;52.000;5.954;2022-07-24T04:15:46;19.10;;;10.15;;
67930;SDS011;54726;52.000;5.954;2022-07-24T04:16:46;20.60;;;9.70;;
67930;SDS011;54726;52.000;5.954;2022-07-24T04:17:46;19.50;;;11.18;;
67930;SDS011;54726;52.000;5.954;2022-07-24T04:18:47;22.50;;;10.23;;
67930;SDS011;54726;52.000;5.954;2022-07-24T04:19:48;15.77;;;9.88;;
67930;SDS011;54726;52.000;5.954;2022-07-24T04:20:48;23.20;;;9.85;;
67930;SDS011;54726;52.000;5.954;2022-07-24T04:21:49;16.80;;;9.55;;
67930;SDS011;54726;52.000;5.954;2022-07-24T04:22:51;20.25;;;10.05;;
67930;SDS011;54726;52.000;5.954;2022-07-24T04:23:51;16.88;;;10.00;;
67930;SDS011;54726;52.000;5.954;2022-07-24T04:24:52;15.73;;;9.43;;
67930;SDS011;54726;52.000;5.954;2022-07-24T04:25:52;22.55;;;10.48;;
67930;SDS011;54726;52.000;5.954;2022-07-24T04:26:53;17.50;;;10.25;;
67930;SDS011;54726;52.000;5.954;2022-07-24T04:27:53;19.95;;;10.40;;
67930;SDS011;54726;52.000;5.954;2022-07-24T04:28:53;19.98;;;11.18;;
67930;SDS011;54726;52.000;5.954;2022-07-24T04:29:54;16.55;;;10.10;;
67930;SDS011;54726;52.000;5.954;2022-07-24T04:30:54;23.25;;;10.52;;
67930;SDS011;54726;52.000;5.954;2022-07-24T04:31:55;18.73;;;10.18;;
67930;SDS011;54726;52.000;5.954;2022-07-24T04:32:55;22.70;;;11.23;;
67930;SDS011;54726;52.000;5.954;2022-07-24T04:33:55;24.92;;;11.25;;
67930;SDS011;54726;52.000;5.954;2022-07-24T04:34:56;22.65;;;10.80;;
67930;SDS011;54726;52.000;5.954;2022-07-24T04:35:57;18.15;;;10.18;;
67930;SDS011;54726;52.000;5.954;2022-07-24T04:36:57;21.27;;;10.70;;
67930;SDS011;54726;52.000;5.954;2022-07-24T04:37:59;22.48;;;11.40;;
67930;SDS011;54726;52.000;5.954;2022-07-24T04:39:00;16.92;;;10.45;;
67930;SDS011;54726;52.000;5.954;2022-07-24T04:40:00;16.13;;;9.98;;
67930;SDS011;54726;52.000;5.954;2022-07-24T04:41:01;18.17;;;10.70;;
67930;SDS011;54726;52.000;5.954;2022-07-24T04:42:01;21.40;;;10.60;;
67930;SDS011;54726;52.000;5.954;2022-07-24T04:43:02;19.35;;;10.93;;
67930;SDS011;54726;52.000;5.954;2022-07-24T04:44:03;19.35;;;10.35;;
67930;SDS011;54726;52.000;5.954;2022-07-24T04:45:04;25.05;;;10.43;;
67930;SDS011;54726;52.000;5.954;2022-07-24T04:46:05;17.77;;;10.68;;
67930;SDS011;54726;52.000;5.954;2022-07-24T04:47:05;28.55;;;11.43;;
67930;SDS011;54726;52.000;5.954;2022-07-24T04:48:06;23.85;;;12.90;;
67930;SDS011;54726;52.000;5.954;2022-07-24T04:49:06;18.88;;;11.63;;
67930;SDS011;54726;52.000;5.954;2022-07-24T04:50:07;28.83;;;11.80;;
67930;SDS011;54726;52.000;5.954;2022-07-24T04:51:08;18.63;;;10.43;;
67930;SDS011;54726;52.000;5.954;2022-07-24T04:52:08;17.05;;;10.00;;
67930;SDS011;54726;52.000;5.954;2022-07-24T04:53:10;18.70;;;11.05;;
67930;SDS011;54726;52.000;5.954;2022-07-24T04:54:11;17.10;;;10.13;;
67930;SDS011;54726;52.000;5.954;2022-07-24T04:55:11;17.30;;;10.48;;
67930;SDS011;54726;52.000;5.954;2022-07-24T04:56:12;19.45;;;10.82;;
67930;SDS011;54726;52.000;5.954;2022-07-24T04:57:12;18.02;;;10.32;;
67930;SDS011;54726;52.000;5.954;2022-07-24T04:58:13;26.85;;;11.23;;
67930;SDS011;54726;52.000;5.954;2022-07-24T04:59:13;19.58;;;10.75;;
67930;SDS011;54726;52.000;5.954;2022-07-24T05:00:14;19.08;;;11.18;;
67930;SDS011;54726;52.000;5.954;2022-07-24T05:01:15;23.73;;;11.45;;
67930;SDS011;54726;52.000;5.954;2022-07-24T05:02:16;22.65;;;11.60;;
67930;SDS011;54726;52.000;5.954;2022-07-24T05:03:16;23.63;;;12.27;;
67930;SDS011;54726;52.000;5.954;2022-07-24T05:04:16;25.20;;;11.32;;
67930;SDS011;54726;52.000;5.954;2022-07-24T05:05:17;20.60;;;11.85;;
67930;SDS011;54726;52.000;5.954;2022-07-24T05:06:17;19.75;;;10.35;;
67930;SDS011;54726;52.000;5.954;2022-07-24T05:07:18;18.90;;;11.05;;
67930;SDS011;54726;52.000;5.954;2022-07-24T05:08:20;25.48;;;11.75;;
67930;SDS011;54726;52.000;5.954;2022-07-24T05:09:20;25.63;;;13.48;;
67930;SDS011;54726;52.000;5.954;2022-07-24T05:10:21;23.48;;;12.98;;
67930;SDS011;54726;52.000;5.954;2022-07-24T05:11:21;27.67;;;12.98;;
67930;SDS011;54726;52.000;5.954;2022-07-24T05:12:21;25.23;;;13.43;;
67930;SDS011;54726;52.000;5.954;2022-07-24T05:13:22;25.90;;;13.45;;
67930;SDS011;54726;52.000;5.954;2022-07-24T05:14:23;24.20;;;12.68;;
67930;SDS011;54726;52.000;5.954;2022-07-24T05:15:23;25.05;;;13.50;;
67930;SDS011;54726;52.000;5.954;2022-07-24T05:16:23;25.73;;;13.13;;
67930;SDS011;54726;52.000;5.954;2022-07-24T05:17:24;26.15;;;13.68;;
67930;SDS011;54726;52.000;5.954;2022-07-24T05:18:24;25.10;;;12.75;;
67930;SDS011;54726;52.000;5.954;2022-07-24T05:19:25;27.35;;;13.27;;
67930;SDS011;54726;52.000;5.954;2022-07-24T05:20:25;25.25;;;13.23;;
67930;SDS011;54726;52.000;5.954;2022-07-24T05:21:26;31.67;;;13.25;;
67930;SDS011;54726;52.000;5.954;2022-07-24T05:22:26;32.10;;;14.50;;
67930;SDS011;54726;52.000;5.954;2022-07-24T05:23:28;27.90;;;14.18;;
67930;SDS011;54726;52.000;5.954;2022-07-24T05:24:29;31.15;;;13.52;;
67930;SDS011;54726;52.000;5.954;2022-07-24T05:25:29;28.95;;;14.30;;
67930;SDS011;54726;52.000;5.954;2022-07-24T05:26:30;25.40;;;14.23;;
67930;SDS011;54726;52.000;5.954;2022-07-24T05:27:31;29.67;;;15.00;;
67930;SDS011;54726;52.000;5.954;2022-07-24T05:28:31;36.10;;;16.73;;
67930;SDS011;54726;52.000;5.954;2022-07-24T05:29:32;28.25;;;15.50;;
67930;SDS011;54726;52.000;5.954;2022-07-24T05:30:32;28.40;;;14.55;;
67930;SDS011;54726;52.000;5.954;2022-07-24T05:31:32;28.25;;;15.75;;
67930;SDS011;54726;52.000;5.954;2022-07-24T05:32:33;29.98;;;15.40;;
67930;SDS011;54726;52.000;5.954;2022-07-24T05:33:34;31.88;;;15.25;;
67930;SDS011;54726;52.000;5.954;2022-07-24T05:34:34;32.85;;;16.90;;
67930;SDS011;54726;52.000;5.954;2022-07-24T05:35:35;35.70;;;16.52;;
67930;SDS011;54726;52.000;5.954;2022-07-24T05:36:36;34.40;;;17.08;;
67930;SDS011;54726;52.000;5.954;2022-07-24T05:37:36;36.13;;;16.77;;
67930;SDS011;54726;52.000;5.954;2022-07-24T05:38:38;43.72;;;19.23;;
67930;SDS011;54726;52.000;5.954;2022-07-24T05:39:38;37.47;;;17.83;;
67930;SDS011;54726;52.000;5.954;2022-07-24T05:40:39;39.00;;;18.88;;
67930;SDS011;54726;52.000;5.954;2022-07-24T05:41:39;34.95;;;18.13;;
67930;SDS011;54726;52.000;5.954;2022-07-24T05:42:40;33.08;;;18.10;;
67930;SDS011;54726;52.000;5.954;2022-07-24T05:43:40;39.78;;;19.65;;
67930;SDS011;54726;52.000;5.954;2022-07-24T05:44:41;51.20;;;21.85;;
67930;SDS011;54726;52.000;5.954;2022-07-24T05:45:41;47.25;;;20.98;;
67930;SDS011;54726;52.000;5.954;2022-07-24T05:46:42;39.92;;;19.73;;
67930;SDS011;54726;52.000;5.954;2022-07-24T05:47:43;41.33;;;21.23;;
67930;SDS011;54726;52.000;5.954;2022-07-24T05:48:43;47.70;;;21.60;;
67930;SDS011;54726;52.000;5.954;2022-07-24T05:49:43;44.45;;;21.45;;
67930;SDS011;54726;52.000;5.954;2022-07-24T05:50:44;46.50;;;21.58;;
67930;SDS011;54726;52.000;5.954;2022-07-24T05:51:45;43.60;;;23.48;;
67930;SDS011;54726;52.000;5.954;2022-07-24T05:52:45;45.30;;;22.35;;
67930;SDS011;54726;52.000;5.954;2022-07-24T05:53:47;48.70;;;22.98;;
67930;SDS011;54726;52.000;5.954;2022-07-24T05:54:47;49.72;;;23.10;;
67930;SDS011;54726;52.000;5.954;2022-07-24T05:55:48;49.65;;;23.30;;
67930;SDS011;54726;52.000;5.954;2022-07-24T05:56:49;45.35;;;23.67;;
67930;SDS011;54726;52.000;5.954;2022-07-24T05:57:49;51.30;;;24.90;;
67930;SDS011;54726;52.000;5.954;2022-07-24T05:58:50;47.10;;;24.10;;
67930;SDS011;54726;52.000;5.954;2022-07-24T05:59:50;48.58;;;24.20;;